Time;durP1;ratioP1;P1;durP2;ratioP2;P2;SDS_P1;SDS_P2;PMS_P1;PMS_P2;Temp;Humidity;BMP_temperature;BMP_pressure;BME280_temperature;BME280_humidity;BME280_pressure;Samples;Min_cycle;Max_cycle;Signal;HPM_P1;HPM_P2
2021/11/10 00:00:51;;;;;;;;;42.25;36.25;;;;;8.55;66.38;102228.03;5009894;28;45456;-65
2021/11/10 00:03:17;;;;;;;;;41.50;36.75;;;;;8.55;66.89;102222.78;5003479;28;46061;-66
2021/11/10 00:05:42;;;;;;;;;38.75;33.75;;;;;8.56;66.47;102216.63;5011777;28;45333;-65
2021/11/10 00:08:08;;;;;;;;;46.25;33.75;;;;;8.59;66.71;102234.91;5015646;28;45483;-66
2021/11/10 00:10:35;;;;;;;;;37.25;32.75;;;;;8.59;66.69;102232.28;5009945;28;45467;-65
2021/11/10 00:15:56;;;;;;;;;37.50;35.75;;;;;8.54;66.81;102215.81;4998268;28;45550;-66
2021/11/10 00:18:22;;;;;;;;;45.00;35.50;;;;;8.54;66.46;102207.94;5013719;28;45261;-65
2021/11/10 00:20:49;;;;;;;;;52.25;42.75;;;;;8.49;66.54;102201.06;5013683;28;45443;-65
2021/11/10 00:23:15;;;;;;;;;55.00;44.50;;;;;8.40;66.58;102212.69;5001071;28;45472;-64
2021/11/10 00:25:41;;;;;;;;;54.50;40.75;;;;;8.37;66.94;102205.75;5013157;28;45384;-64
2021/11/10 00:28:07;;;;;;;;;48.00;37.50;;;;;8.36;66.71;102204.00;5030739;28;45385;-64
2021/11/10 00:30:33;;;;;;;;;42.75;35.00;;;;;8.35;66.71;102204.06;5039774;28;46929;-64
2021/11/10 00:32:59;;;;;;;;;44.25;35.50;;;;;8.28;67.05;102184.94;5031381;28;45319;-64
2021/11/10 00:35:25;;;;;;;;;44.25;38.00;;;;;8.23;66.89;102176.34;5035599;28;45280;-64
2021/11/10 00:37:51;;;;;;;;;51.50;41.00;;;;;8.21;67.24;102170.25;5016164;28;45315;-64
2021/11/10 00:40:17;;;;;;;;;35.50;33.75;;;;;8.20;67.22;102194.78;5037373;28;45387;-64
2021/11/10 00:42:42;;;;;;;;;44.50;37.50;;;;;8.23;67.40;102202.59;5039158;28;46032;-64
2021/11/10 00:45:09;;;;;;;;;43.75;35.25;;;;;8.24;67.54;102200.81;5038254;28;45268;-64
2021/11/10 00:47:34;;;;;;;;;49.25;36.00;;;;;8.23;67.37;102199.09;5034889;28;45375;-64
2021/11/10 00:50:00;;;;;;;;;56.75;35.25;;;;;8.21;67.38;102199.13;5036615;28;46616;-64
2021/11/10 00:52:26;;;;;;;;;41.00;31.75;;;;;8.18;67.46;102200.97;5038683;28;45612;-64
2021/11/10 00:54:52;;;;;;;;;38.50;32.75;;;;;8.18;67.35;102198.34;5039389;28;45558;-64
2021/11/10 00:57:18;;;;;;;;;44.00;31.00;;;;;8.15;67.74;102191.44;5037614;28;45431;-64
2021/11/10 00:59:44;;;;;;;;;33.50;28.00;;;;;8.17;67.62;102184.38;5035172;28;45455;-64
2021/11/10 01:02:09;;;;;;;;;39.00;30.75;;;;;8.17;67.58;102175.63;5039078;28;46139;-64
2021/11/10 01:04:35;;;;;;;;;42.75;36.00;;;;;8.15;67.24;102169.56;5035978;28;45365;-64
2021/11/10 01:07:02;;;;;;;;;41.75;35.75;;;;;8.12;67.46;102183.63;5036267;28;45221;-64
2021/11/10 01:09:27;;;;;;;;;42.50;37.25;;;;;8.09;67.40;102167.97;5037664;28;45227;-63
2021/11/10 01:11:53;;;;;;;;;44.50;37.25;;;;;8.03;67.58;102155.84;5038877;28;45421;-63
2021/11/10 01:14:19;;;;;;;;;39.75;33.00;;;;;7.97;67.81;102148.13;5038593;28;45201;-63
2021/11/10 01:16:46;;;;;;;;;46.00;39.50;;;;;7.94;67.80;102166.59;5021038;28;45396;-64
2021/11/10 01:19:11;;;;;;;;;64.25;44.50;;;;;7.93;68.24;102150.88;5036956;28;45279;-63
2021/11/10 01:21:37;;;;;;;;;65.50;50.75;;;;;7.91;68.34;102145.69;5038686;28;46041;-63
2021/11/10 01:24:03;;;;;;;;;65.00;48.25;;;;;7.92;68.43;102154.41;5036124;28;45339;-63
2021/11/10 01:26:28;;;;;;;;;60.00;47.50;;;;;7.95;68.40;102151.72;5038762;28;45387;-64
2021/11/10 01:28:54;;;;;;;;;61.25;47.00;;;;;7.94;68.41;102158.72;5036353;28;45414;-64
2021/11/10 01:31:20;;;;;;;;;57.00;45.00;;;;;7.91;68.57;102155.31;5036812;28;45252;-63
2021/11/10 01:33:46;;;;;;;;;53.75;44.00;;;;;7.89;68.53;102159.72;5040702;28;45432;-64
2021/11/10 01:36:12;;;;;;;;;59.50;44.50;;;;;7.88;68.54;102152.75;5039235;28;45309;-64
2021/11/10 01:38:37;;;;;;;;;66.00;51.00;;;;;7.86;68.57;102144.06;5036551;28;45269;-64
2021/11/10 01:41:03;;;;;;;;;63.50;47.00;;;;;7.86;68.73;102144.94;5022950;28;46789;-64
2021/11/10 01:43:29;;;;;;;;;62.50;46.25;;;;;7.88;68.36;102139.66;5037929;28;45337;-64
2021/11/10 01:45:56;;;;;;;;;60.25;46.25;;;;;7.88;68.11;102140.50;5035734;28;45363;-64
2021/11/10 01:48:23;;;;;;;;;61.50;49.00;;;;;7.90;68.22;102153.56;5014916;28;45479;-64
2021/11/10 01:50:48;;;;;;;;;60.00;48.00;;;;;7.92;68.04;102146.56;5035319;28;45503;-64
2021/11/10 01:53:14;;;;;;;;;60.75;44.75;;;;;7.91;67.83;102147.44;5036765;28;45458;-64
2021/11/10 01:55:40;;;;;;;;;61.00;44.25;;;;;7.88;68.08;102155.38;5037615;28;45400;-64
2021/11/10 01:58:05;;;;;;;;;61.50;45.25;;;;;7.84;68.04;102155.47;5035584;28;45443;-64
2021/11/10 02:00:36;;;;;;;;;61.50;44.50;;;;;7.80;68.10;102147.72;5038113;28;45459;-64
2021/11/10 02:03:01;;;;;;;;;55.50;44.00;;;;;7.76;68.18;102153.94;5035586;28;45453;-64
2021/11/10 02:05:27;;;;;;;;;60.50;43.25;;;;;7.76;67.99;102159.19;5037239;28;45340;-64
2021/11/10 02:07:53;;;;;;;;;53.75;42.75;;;;;7.71;67.97;102163.69;5036753;28;45282;-64
2021/11/10 02:10:24;;;;;;;;;56.75;43.25;;;;;7.68;68.24;102167.25;5034919;28;45970;-64
2021/11/10 02:12:51;;;;;;;;;56.75;44.00;;;;;7.69;67.78;102162.84;5030395;28;45352;-64
2021/11/10 02:15:18;;;;;;;;;51.75;40.50;;;;;7.70;68.31;102170.69;5037951;28;45324;-64
2021/11/10 02:17:57;;;;;;;;;45.50;36.00;;;;;7.69;68.11;102166.34;5035095;28;45445;-64
2021/11/10 02:20:26;;;;;;;;;54.25;40.50;;;;;7.65;68.04;102158.56;5037604;28;45903;-64
2021/11/10 02:22:53;;;;;;;;;56.00;42.50;;;;;7.58;68.42;102144.75;5035792;28;45331;-64
2021/11/10 02:25:19;;;;;;;;;46.25;39.00;;;;;7.49;68.30;102139.72;5038146;28;45406;-64
2021/11/10 02:27:45;;;;;;;;;54.50;43.25;;;;;7.49;68.05;102144.97;5035140;28;45445;-64
2021/11/10 02:30:14;;;;;;;;;53.75;42.00;;;;;7.52;68.51;102137.06;5036671;28;46072;-64
2021/11/10 02:32:40;;;;;;;;;55.50;38.00;;;;;7.59;68.71;102133.38;5036802;28;45747;-64
2021/11/10 02:35:06;;;;;;;;;47.00;41.00;;;;;7.62;68.34;102138.53;5036295;28;45328;-64
2021/11/10 02:37:32;;;;;;;;;52.50;41.75;;;;;7.65;68.05;102133.22;5037124;28;45408;-64
2021/11/10 02:39:58;;;;;;;;;45.75;40.75;;;;;7.64;68.08;102126.25;5037509;28;46097;-64
2021/11/10 02:42:23;;;;;;;;;54.00;44.00;;;;;7.65;67.81;102129.72;5034844;28;45336;-64
2021/11/10 02:44:51;;;;;;;;;59.00;40.50;;;;;7.65;67.68;102122.72;5033893;28;45316;-64
2021/11/10 02:47:18;;;;;;;;;42.25;39.00;;;;;7.66;68.48;102121.84;5036292;28;45336;-64
2021/11/10 02:49:44;;;;;;;;;54.25;35.50;;;;;7.67;68.20;102114.84;5037261;28;45325;-64
2021/11/10 02:52:19;;;;;;;;;35.75;32.50;;;;;7.67;68.21;102107.81;5035205;28;45506;-64
2021/11/10 02:54:49;;;;;;;;;45.75;38.25;;;;;7.67;68.38;102126.19;5037104;28;45347;-73
2021/11/10 02:57:15;;;;;;;;;47.00;37.25;;;;;7.64;68.40;102121.00;5036020;28;45359;-64
2021/11/10 02:59:40;;;;;;;;;46.50;36.25;;;;;7.61;68.18;102117.59;5037604;28;46964;-64
2021/11/10 03:02:06;;;;;;;;;50.00;35.75;;;;;7.59;68.35;102120.28;5037258;28;45273;-64
2021/11/10 03:04:44;;;;;;;;;37.25;34.75;;;;;7.58;68.03;102110.66;5035963;28;45194;-64
2021/11/10 03:07:10;;;;;;;;;43.00;38.00;;;;;7.54;68.26;102116.88;5037046;28;45486;-64
2021/11/10 03:09:36;;;;;;;;;40.25;37.50;;;;;7.53;68.27;102110.78;5035868;28;46454;-64
2021/11/10 03:12:04;;;;;;;;;37.00;33.75;;;;;7.51;68.03;102109.97;5032504;28;45263;-64
2021/11/10 03:14:33;;;;;;;;;52.00;34.25;;;;;7.49;68.55;102109.13;5029297;28;45245;-64
2021/11/10 03:16:59;;;;;;;;;41.00;33.25;;;;;7.52;68.14;102101.19;5033401;28;45503;-64
2021/11/10 03:19:25;;;;;;;;;37.00;35.50;;;;;7.52;68.53;102095.97;5013460;28;46392;-64
2021/11/10 03:21:51;;;;;;;;;52.50;39.25;;;;;7.53;68.04;102099.44;5035086;28;45782;-64
2021/11/10 03:24:17;;;;;;;;;44.50;37.25;;;;;7.53;67.80;102105.53;5034550;28;45312;-65
2021/11/10 03:26:43;;;;;;;;;48.75;40.50;;;;;7.53;67.98;102105.53;5020300;28;45312;-65
2021/11/10 03:29:09;;;;;;;;;45.50;38.00;;;;;7.50;67.64;102108.25;5028590;28;46630;-64
2021/11/10 03:31:37;;;;;;;;;43.75;39.25;;;;;7.45;67.75;102109.25;5037351;28;45483;-65
2021/11/10 03:34:06;;;;;;;;;35.00;27.25;;;;;7.40;67.57;102101.47;5034393;28;45409;-65
2021/11/10 03:36:31;;;;;;;;;48.75;35.25;;;;;7.33;68.04;102105.16;5035507;28;45325;-65
2021/11/10 03:38:58;;;;;;;;;53.75;41.00;;;;;7.31;67.79;102100.84;5033993;28;46504;-65
2021/11/10 03:41:25;;;;;;;;;47.75;39.25;;;;;7.32;67.75;102102.56;5036829;28;45313;-65
2021/11/10 03:43:53;;;;;;;;;44.75;36.00;;;;;7.31;68.03;102119.19;5033832;28;45178;-65
2021/11/10 03:46:20;;;;;;;;;55.75;41.50;;;;;7.32;67.42;102119.16;5033819;28;45431;-65
2021/11/10 03:48:46;;;;;;;;;57.00;44.00;;;;;7.31;67.89;102113.97;5033821;28;46059;-65
2021/11/10 03:51:12;;;;;;;;;43.75;38.00;;;;;7.24;67.45;102111.47;5036676;28;45379;-65
2021/11/10 03:53:38;;;;;;;;;56.25;38.00;;;;;7.23;67.82;102120.25;5034277;28;45336;-65
2021/11/10 03:56:04;;;;;;;;;55.50;43.00;;;;;7.22;67.53;102115.91;5037357;28;45599;-65
2021/11/10 03:58:30;;;;;;;;;41.75;38.00;;;;;7.22;67.97;102107.19;5032066;28;45453;-65
2021/11/10 04:00:57;;;;;;;;;48.00;38.75;;;;;7.24;68.10;102110.63;5040217;28;45435;-65
2021/11/10 04:03:22;;;;;;;;;55.50;41.75;;;;;7.24;67.86;102118.47;5037561;28;45415;-65
2021/11/10 04:05:48;;;;;;;;;46.75;41.00;;;;;7.26;67.90;102122.78;5039995;28;45523;-66
2021/11/10 04:08:14;;;;;;;;;55.50;41.00;;;;;7.27;67.87;102127.16;5037178;28;46491;-63
2021/11/10 04:10:39;;;;;;;;;49.50;41.00;;;;;7.25;67.77;102143.78;5019470;28;45254;-64
2021/11/10 04:13:06;;;;;;;;;54.50;43.50;;;;;7.24;67.57;102155.16;5036884;28;45275;-63
2021/11/10 04:15:32;;;;;;;;;53.75;42.25;;;;;7.17;68.04;102167.53;5040190;28;45529;-63
2021/11/10 04:17:57;;;;;;;;;59.00;42.75;;;;;7.12;68.33;102193.00;5037187;28;45461;-63
2021/11/10 04:20:23;;;;;;;;;63.00;44.50;;;;;7.11;68.25;102188.66;5040065;28;45320;-63
2021/11/10 04:22:49;;;;;;;;;63.75;46.00;;;;;7.07;68.10;102173.88;5039906;28;45262;-64
2021/11/10 04:25:14;;;;;;;;;64.50;47.75;;;;;7.05;68.47;102177.44;5039877;28;45454;-64
2021/11/10 04:27:40;;;;;;;;;59.25;47.00;;;;;7.05;68.35;102185.31;5036665;28;45356;-64
2021/11/10 04:30:11;;;;;;;;;61.00;47.75;;;;;7.08;68.62;102180.00;5039495;28;45259;-64
2021/11/10 04:32:37;;;;;;;;;57.75;43.25;;;;;7.04;68.78;102166.09;5038417;28;45427;-63
2021/11/10 04:35:04;;;;;;;;;67.00;49.50;;;;;7.03;68.51;102168.72;5038017;28;45310;-64
2021/11/10 04:37:30;;;;;;;;;37.67;27.67;;;;;7.05;68.38;102167.84;5020967;28;47158;-63
2021/11/10 04:39:55;;;;;;;;;63.33;48.33;;;;;7.08;68.57;102161.66;5039533;28;45360;-64
2021/11/10 04:42:21;;;;;;;;;63.75;48.00;;;;;7.09;68.87;102159.00;5037505;28;45430;-64
2021/11/10 04:44:51;;;;;;;;;60.25;47.50;;;;;7.07;68.83;102152.06;5034210;28;45363;-64
2021/11/10 04:47:16;;;;;;;;;59.75;47.50;;;;;7.09;68.92;102152.88;5037548;28;45308;-64
2021/11/10 04:49:42;;;;;;;;;63.00;48.25;;;;;7.12;69.53;102147.59;5039390;28;45382;-64
2021/11/10 04:52:09;;;;;;;;;51.50;43.00;;;;;7.16;68.98;102163.19;5036894;28;45566;-64
2021/11/10 04:54:34;;;;;;;;;62.00;46.00;;;;;7.20;69.36;102158.78;5039659;28;45333;-64
2021/11/10 04:57:02;;;;;;;;;56.00;44.75;;;;;7.20;69.00;102164.00;5036354;28;45976;-64
2021/11/10 04:59:28;;;;;;;;;59.00;46.25;;;;;7.23;69.19;102166.56;5038687;28;45379;-64
2021/11/10 05:04:40;;;;;;;;;61.00;45.25;;;;;7.26;68.97;102148.13;5038389;28;45692;-64
2021/11/10 05:07:06;;;;;;;;;62.50;45.00;;;;;7.26;68.74;102132.41;5038466;28;46433;-64
2021/11/10 05:09:32;;;;;;;;;68.25;50.00;;;;;7.23;69.26;102124.63;5036436;28;45283;-64
2021/11/10 05:11:58;;;;;;;;;59.50;45.75;;;;;7.19;68.88;102129.09;5040396;28;45257;-63
2021/11/10 05:14:25;;;;;;;;;61.50;47.50;;;;;7.13;68.34;102129.22;5036531;28;45499;-63
2021/11/10 05:16:51;;;;;;;;;66.25;49.00;;;;;7.04;68.62;102115.47;5038195;28;46240;-65
2021/11/10 05:19:18;;;;;;;;;62.75;49.25;;;;;6.97;68.76;102107.75;5036007;28;45536;-64
2021/11/10 05:21:43;;;;;;;;;61.75;46.50;;;;;6.92;68.10;102108.72;5038997;28;45492;-63
2021/11/10 05:24:09;;;;;;;;;58.75;45.00;;;;;6.86;68.66;102104.47;5036361;28;45739;-65
2021/11/10 05:26:36;;;;;;;;;58.75;43.75;;;;;6.80;68.16;102098.53;5041309;28;45583;-64
2021/11/10 05:29:01;;;;;;;;;62.75;45.25;;;;;6.74;68.81;102107.38;5036985;28;45333;-65
2021/11/10 05:31:27;;;;;;;;;49.25;42.25;;;;;6.71;69.01;102120.53;5035986;28;45253;-64
2021/11/10 05:33:52;;;;;;;;;58.50;43.50;;;;;6.67;68.58;102121.50;5036265;28;45349;-62
2021/11/10 05:36:18;;;;;;;;;57.00;43.00;;;;;6.64;68.18;102108.47;5032523;28;45415;-65
2021/11/10 05:38:44;;;;;;;;;61.75;44.50;;;;;6.58;68.54;102111.22;5038218;28;45398;-62
2021/11/10 05:41:09;;;;;;;;;58.25;39.50;;;;;6.54;68.83;102105.16;5038592;28;45494;-62
2021/11/10 05:43:36;;;;;;;;;62.00;41.75;;;;;6.49;69.09;102104.41;5035355;28;45174;-65
2021/11/10 05:46:02;;;;;;;;;57.25;44.00;;;;;6.43;68.87;102094.06;5034916;28;45232;-65
2021/11/10 05:48:28;;;;;;;;;53.50;42.00;;;;;6.40;68.45;102097.63;5035678;28;45430;-63
2021/11/10 05:50:53;;;;;;;;;56.50;45.50;;;;;6.43;68.46;102094.06;5038143;28;45284;-65
2021/11/10 05:53:19;;;;;;;;;55.75;43.00;;;;;6.43;68.81;102091.44;5036612;28;45459;-64
2021/11/10 05:55:51;;;;;;;;;62.50;46.25;;;;;6.42;68.67;102081.88;5037600;28;45405;-65
2021/11/10 05:58:17;;;;;;;;;51.00;44.00;;;;;6.41;69.23;102085.38;5030682;28;45451;-65
2021/11/10 06:00:42;;;;;;;;;63.33;50.67;;;;;6.43;68.49;102086.22;5038328;28;45483;-64
2021/11/10 06:03:08;;;;;;;;;55.00;44.25;;;;;6.39;69.04;102089.78;5035507;28;45467;-64
2021/11/10 06:05:33;;;;;;;;;59.00;47.75;;;;;6.37;68.99;102105.50;5037811;28;45427;-65
2021/11/10 06:07:59;;;;;;;;;62.50;43.25;;;;;6.36;69.27;102113.41;5035705;28;45427;-65
2021/11/10 06:10:24;;;;;;;;;65.67;49.67;;;;;6.40;68.72;102115.06;5038004;28;45534;-65
2021/11/10 06:12:50;;;;;;;;;60.25;46.25;;;;;6.44;69.24;102117.59;5036195;28;45537;-64
2021/11/10 06:15:17;;;;;;;;;61.25;48.25;;;;;6.42;68.83;102137.69;5038067;28;45455;-64
2021/11/10 06:17:43;;;;;;;;;63.75;47.75;;;;;6.38;68.79;102140.41;5019005;28;45496;-64
2021/11/10 06:20:09;;;;;;;;;62.67;46.67;;;;;6.41;68.38;102141.22;5037204;28;45413;-64
2021/11/10 06:22:36;;;;;;;;;61.00;47.33;;;;;6.40;68.95;102151.72;5035551;28;45214;-64
2021/11/10 06:25:03;;;;;;;;;57.00;45.00;;;;;6.39;68.54;102158.69;5037847;28;46024;-64
2021/11/10 06:27:28;;;;;;;;;59.33;45.33;;;;;6.40;68.33;102154.34;5034266;28;45268;-65
2021/11/10 06:29:54;;;;;;;;;53.25;43.50;;;;;6.37;68.39;102157.00;5036471;28;45146;-64
2021/11/10 06:32:19;;;;;;;;;61.50;45.75;;;;;6.39;68.78;102156.06;5034841;28;45392;-64
2021/11/10 06:34:45;;;;;;;;;61.33;47.00;;;;;6.41;69.53;102166.53;5033869;28;45444;-64
2021/11/10 06:37:10;;;;;;;;;60.50;50.25;;;;;6.43;68.86;102176.06;5033965;28;45358;-64
2021/11/10 06:39:36;;;;;;;;;58.50;41.50;;;;;6.40;69.62;102176.13;5036325;28;45317;-65
2021/11/10 06:42:03;;;;;;;;;63.25;45.00;;;;;6.38;69.44;102190.97;5034154;28;45304;-64
2021/11/10 06:44:28;;;;;;;;;63.75;49.00;;;;;6.33;69.62;102189.38;5033966;28;46016;-64
2021/11/10 06:46:54;;;;;;;;;59.00;47.50;;;;;6.31;69.55;102189.38;5033518;28;45475;-64
2021/11/10 06:49:19;;;;;;;;;64.33;46.33;;;;;6.35;69.55;102198.03;5036037;28;45550;-64
2021/11/10 06:51:45;;;;;;;;;64.67;47.33;;;;;6.39;69.34;102203.16;5033901;28;45218;-64
2021/11/10 06:54:13;;;;;;;;;64.00;49.67;;;;;6.42;68.70;102213.59;5035747;28;45434;-62
2021/11/10 06:56:38;;;;;;;;;65.00;52.00;;;;;6.47;68.70;102228.34;5033190;28;45458;-64
2021/11/10 06:59:04;;;;;;;;;64.33;50.33;;;;;6.51;69.08;102228.28;5035763;28;45417;-64
2021/11/10 07:01:29;;;;;;;;;64.33;49.67;;;;;6.55;69.39;102231.69;5033221;28;45492;-64
2021/11/10 07:03:55;;;;;;;;;67.00;49.33;;;;;6.54;68.66;102240.44;5035557;28;46222;-64
2021/11/10 07:06:20;;;;;;;;;62.00;48.33;;;;;6.52;68.89;102257.94;5020330;28;45388;-64
2021/11/10 07:08:46;;;;;;;;;58.67;46.33;;;;;6.48;68.57;102254.53;5035846;28;45443;-64
2021/11/10 07:11:12;;;;;;;;;46.00;40.00;;;;;6.46;69.79;102251.03;5033535;28;45408;-64
2021/11/10 07:13:37;;;;;;;;;63.00;49.33;;;;;6.44;68.78;102238.00;5032808;28;46070;-62
2021/11/10 07:16:04;;;;;;;;;60.00;46.50;;;;;6.44;69.84;102244.97;5033337;28;45319;-64
2021/11/10 07:18:30;;;;;;;;;66.75;46.75;;;;;6.47;68.95;102238.81;5035459;28;45406;-64
2021/11/10 07:20:56;;;;;;;;;72.00;52.25;;;;;6.44;69.20;102224.03;5034174;28;45260;-64
2021/11/10 07:23:22;;;;;;;;;56.25;45.50;;;;;6.44;69.40;102239.75;5032890;28;45173;-62
2021/11/10 07:25:47;;;;;;;;;68.75;47.75;;;;;6.43;69.32;102217.09;5032892;28;45162;-64
2021/11/10 07:28:14;;;;;;;;;70.00;52.75;;;;;6.44;69.16;102217.03;4985342;28;1449334;-64
2021/11/10 07:30:40;;;;;;;;;69.67;50.00;;;;;6.45;69.69;102220.53;5035161;28;45253;-65
2021/11/10 07:33:07;;;;;;;;;76.00;53.67;;;;;6.45;69.45;102223.16;5038315;28;46209;-65
2021/11/10 07:35:35;;;;;;;;;72.00;54.00;;;;;6.43;69.57;102228.41;5032394;28;45369;-64
2021/11/10 07:38:00;;;;;;;;;73.00;50.00;;;;;6.41;69.09;102227.59;5040072;28;45255;-65
2021/11/10 07:40:26;;;;;;;;;66.67;52.00;;;;;6.41;68.80;102216.25;5037975;28;45308;-64
2021/11/10 07:42:53;;;;;;;;;64.00;52.00;;;;;6.40;69.50;102211.91;5039136;28;46378;-65
2021/11/10 07:45:34;;;;;;;;;65.00;48.67;;;;;6.41;69.24;102219.72;5035728;28;45567;-65
2021/11/10 07:48:02;;;;;;;;;70.00;51.50;;;;;6.40;68.83;102215.41;5040376;28;45348;-69
2021/11/10 07:50:29;;;;;;;;;64.67;49.00;;;;;6.44;69.26;102205.72;5038619;28;45548;-64
2021/11/10 07:52:55;;;;;;;;;60.33;47.67;;;;;6.44;69.35;102201.34;5036804;28;45488;-65
2021/11/10 07:55:22;;;;;;;;;66.00;50.00;;;;;6.49;68.93;102208.25;5038512;28;45407;-65
2021/11/10 07:57:48;;;;;;;;;67.67;47.67;;;;;6.55;69.32;102208.13;5043778;28;45340;-71
2021/11/10 08:00:16;;;;;;;;;64.67;48.00;;;;;6.58;68.76;102205.47;5025725;28;45735;-64
2021/11/10 08:02:43;;;;;;;;;65.33;48.33;;;;;6.58;69.60;102195.00;5043656;28;45522;-66
2021/11/10 08:05:11;;;;;;;;;70.00;52.33;;;;;6.60;68.98;102187.97;5043250;28;45304;-67
2021/11/10 08:07:37;;;;;;;;;65.00;47.67;;;;;6.60;69.16;102190.59;5043881;28;45305;-68
2021/11/10 08:10:05;;;;;;;;;67.00;47.00;;;;;6.64;68.83;102194.88;5043040;28;45470;-68
2021/11/10 08:12:31;;;;;;;;;61.33;45.33;;;;;6.67;69.01;102207.91;5036452;28;47661;-67
2021/11/10 08:14:58;;;;;;;;;60.00;45.67;;;;;6.70;68.95;102211.31;5039073;28;45167;-68
2021/11/10 08:17:24;;;;;;;;;61.67;49.00;;;;;6.77;69.02;102219.91;5038943;28;45277;-69
2021/11/10 08:19:50;;;;;;;;;62.67;50.67;;;;;6.81;69.09;102211.13;5038052;28;45697;-68
2021/11/10 08:22:16;;;;;;;;;58.67;46.00;;;;;6.87;68.71;102224.09;5039792;28;45423;-67
2021/11/10 08:24:42;;;;;;;;;63.33;50.00;;;;;6.90;68.97;102234.50;5036966;28;45399;-68
2021/11/10 08:27:07;;;;;;;;;59.00;46.67;;;;;6.94;69.22;102232.66;5043078;28;45418;-67
2021/11/10 08:29:33;;;;;;;;;56.00;44.67;;;;;7.03;69.00;102229.00;5043100;28;45397;-67
2021/11/10 08:31:59;;;;;;;;;73.67;54.00;;;;;7.14;68.30;102235.75;5041030;28;46265;-67
2021/11/10 08:34:24;;;;;;;;;61.33;46.33;;;;;7.20;69.02;102240.00;5035819;28;45294;-68
2021/11/10 08:36:50;;;;;;;;;67.67;50.00;;;;;7.25;68.95;102243.38;5041471;28;45527;-67
2021/11/10 08:39:15;;;;;;;;;68.25;51.25;;;;;7.28;68.73;102254.69;5037377;28;45301;-66
2021/11/10 08:41:43;;;;;;;;;68.50;52.50;;;;;7.34;68.63;102250.19;5039945;28;45439;-67
2021/11/10 08:44:09;;;;;;;;;71.00;51.00;;;;;7.39;68.44;102246.56;5044315;28;45521;-67
2021/11/10 08:46:34;;;;;;;;;61.00;49.00;;;;;7.44;68.20;102241.25;5039157;28;45248;-68
2021/11/10 08:49:00;;;;;;;;;67.67;51.00;;;;;7.50;68.10;102235.84;5042734;28;45289;-67
2021/11/10 08:51:25;;;;;;;;;59.33;49.67;;;;;7.54;68.07;102240.13;5041966;28;45926;-68
2021/11/10 08:53:51;;;;;;;;;72.67;53.00;;;;;7.61;68.50;102238.22;5042769;28;45256;-68
2021/11/10 08:56:17;;;;;;;;;67.67;52.67;;;;;7.67;68.27;102240.72;5042259;28;45534;-67
2021/11/10 08:58:43;;;;;;;;;68.00;52.00;;;;;7.71;68.20;102243.22;5042442;28;45311;-67
2021/11/10 09:01:09;;;;;;;;;62.67;49.33;;;;;7.78;67.93;102236.06;5042634;28;46043;-65
2021/11/10 09:03:34;;;;;;;;;70.00;53.00;;;;;7.82;67.71;102238.59;5042283;28;45241;-65
2021/11/10 09:06:00;;;;;;;;;71.33;52.33;;;;;7.88;68.02;102234.09;5024511;28;45389;-66
2021/11/10 09:08:27;;;;;;;;;70.33;52.00;;;;;7.96;67.92;102235.63;5031957;28;45599;-65
2021/11/10 09:10:52;;;;;;;;;69.00;52.67;;;;;8.02;67.75;102248.59;5035723;28;45249;-65
2021/11/10 09:13:19;;;;;;;;;70.33;56.00;;;;;8.06;67.79;102247.66;5036995;28;45443;-65
2021/11/10 09:15:44;;;;;;;;;60.33;50.00;;;;;8.12;67.94;102254.47;5042589;28;45313;-65
2021/11/10 09:18:10;;;;;;;;;76.00;55.00;;;;;8.21;67.68;102245.50;5042185;28;45476;-69
2021/11/10 09:20:39;;;;;;;;;72.00;55.33;;;;;8.30;67.56;102235.66;5022464;28;47792;-68
2021/11/10 09:23:06;;;;;;;;;71.67;53.33;;;;;8.37;67.41;102232.00;5042069;28;45492;-66
2021/11/10 09:25:34;;;;;;;;;67.33;50.67;;;;;8.41;67.07;102213.53;5042363;28;45237;-64
2021/11/10 09:28:02;;;;;;;;;79.67;59.33;;;;;8.44;67.11;102210.81;5041929;28;45419;-64
2021/11/10 09:30:29;;;;;;;;;67.00;53.00;;;;;8.48;66.98;102208.09;5041608;28;45467;-64
2021/11/10 09:32:56;;;;;;;;;78.67;59.67;;;;;8.50;67.15;102206.28;5041529;28;45374;-65
2021/11/10 09:35:24;;;;;;;;;68.00;53.00;;;;;8.54;66.91;102200.03;5033563;28;45444;-66
2021/11/10 09:37:52;;;;;;;;;65.33;54.67;;;;;8.62;66.92;102203.31;5041656;28;45286;-65
2021/11/10 09:40:20;;;;;;;;;69.33;53.00;;;;;8.67;67.03;102209.28;5040111;28;46094;-65
2021/11/10 09:42:46;;;;;;;;;66.00;51.00;;;;;8.71;67.01;102209.22;5034683;28;45571;-65
2021/11/10 09:45:15;;;;;;;;;63.33;52.33;;;;;8.73;66.79;102215.28;5041496;28;45434;-65
2021/11/10 09:47:42;;;;;;;;;71.00;54.33;;;;;8.78;67.16;102222.16;5042129;28;45375;-65
2021/11/10 09:50:11;;;;;;;;;67.00;54.67;;;;;8.81;66.67;102223.81;5040848;28;46431;-66
2021/11/10 09:52:37;;;;;;;;;67.33;52.00;;;;;8.85;67.10;102225.47;5042079;28;45361;-66
2021/11/10 09:55:05;;;;;;;;;73.67;54.33;;;;;8.91;66.85;102235.78;5032399;28;45542;-65
2021/11/10 09:57:32;;;;;;;;;63.67;52.67;;;;;8.98;66.72;102242.59;5026643;28;45623;-67
2021/11/10 09:59:58;;;;;;;;;68.00;53.00;;;;;9.02;66.95;102235.50;5034854;28;46063;-66
2021/11/10 10:02:24;;;;;;;;;67.00;53.33;;;;;9.08;66.88;102249.28;5033269;28;45757;-66
2021/11/10 10:04:50;;;;;;;;;74.67;54.00;;;;;9.13;66.27;102242.16;5033646;28;45488;-66
2021/11/10 10:07:17;;;;;;;;;70.67;53.33;;;;;9.19;66.51;102241.13;5010434;28;45436;-66
2021/11/10 10:09:43;;;;;;;;;76.67;56.00;;;;;9.22;66.50;102241.88;5035627;28;45424;-66
2021/11/10 10:12:09;;;;;;;;;65.33;52.00;;;;;9.29;66.36;102242.56;5035066;28;46348;-65
2021/11/10 10:14:36;;;;;;;;;85.67;65.33;;;;;9.33;66.53;102248.59;5037394;28;45261;-65
2021/11/10 10:17:04;;;;;;;;;95.67;75.00;;;;;9.38;66.07;102244.91;5035227;28;45402;-66
2021/11/10 10:19:40;;;;;;;;;80.00;62.33;;;;;9.45;66.41;102256.09;5034651;28;46164;-66
2021/11/10 10:22:06;;;;;;;;;73.67;53.67;;;;;9.51;65.99;102254.16;5034082;28;45294;-66
2021/11/10 10:24:50;;;;;;;;;68.33;54.33;;;;;9.59;66.13;102253.06;5037350;28;45462;-66
2021/11/10 10:27:24;;;;;;;;;70.00;54.33;;;;;9.63;65.68;102250.28;5036928;28;45134;-64
2021/11/10 10:30:28;;;;;;;;;62.75;48.75;;;;;9.66;65.34;102258.09;5036623;28;46346;-66
2021/11/10 10:33:05;;;;;;;;;66.25;53.00;;;;;9.74;65.32;102257.84;5038662;28;45411;-65
2021/11/10 10:35:55;;;;;;;;;73.33;56.67;;;;;9.83;65.10;102246.16;5036233;28;45467;-61
2021/11/10 10:38:25;;;;;;;;;69.67;54.67;;;;;9.90;65.22;102224.00;5033098;28;45343;-61
2021/11/10 10:40:53;;;;;;;;;61.00;50.00;;;;;9.95;64.83;102233.50;5034686;28;46293;-61
2021/11/10 10:43:21;;;;;;;;;70.67;55.67;;;;;10.01;65.20;102225.34;5033155;28;45463;-61
2021/11/10 10:45:59;;;;;;;;;76.25;55.50;;;;;10.05;64.90;102219.09;5035289;28;45434;-61
2021/11/10 10:48:27;;;;;;;;;70.75;52.50;;;;;10.10;65.05;102215.44;5008955;28;45453;-61
2021/11/10 10:51:03;;;;;;;;;64.00;52.00;;;;;10.15;64.57;102218.78;5027533;28;45230;-61
2021/11/10 10:53:42;;;;;;;;;64.00;47.25;;;;;10.18;64.05;102211.63;5032955;28;45549;-61
2021/11/10 10:56:29;;;;;;;;;62.50;48.75;;;;;10.22;64.00;102202.75;5037424;28;45445;-61
2021/11/10 10:59:04;;;;;;;;;62.75;48.75;;;;;10.26;64.03;102200.88;5035299;28;45314;-61
2021/11/10 11:01:41;;;;;;;;;64.33;52.00;;;;;10.33;63.64;102208.50;5035169;28;46182;-62
2021/11/10 11:04:08;;;;;;;;;73.67;55.67;;;;;10.39;63.36;102207.44;5037927;28;45244;-64
2021/11/10 11:06:43;;;;;;;;;63.00;50.25;;;;;10.47;63.54;102194.00;5031965;28;45554;-64
2021/11/10 11:09:11;;;;;;;;;66.25;50.50;;;;;10.52;63.40;102187.66;5038330;28;45632;-64
2021/11/10 11:11:39;;;;;;;;;70.50;52.50;;;;;10.57;63.28;102190.09;5011203;28;46979;-64
2021/11/10 11:14:15;;;;;;;;;68.50;53.25;;;;;10.63;63.47;102203.06;5034244;28;45408;-62
2021/11/10 11:16:42;;;;;;;;;67.75;54.50;;;;;10.65;63.44;102188.06;5042152;28;45244;-62
2021/11/10 11:19:18;;;;;;;;;69.75;53.75;;;;;10.69;62.98;102181.78;5045857;28;45420;-62
2021/11/10 11:21:55;;;;;;;;;65.50;50.00;;;;;10.73;62.71;102178.09;5040103;28;46205;-63